Main page
METAR-TAF:

METAR-TAF

Airports :

Sukkur, Pakistan

Sukkur Airport

latitude: 27-43-19N, longitude: 068-47-31E, elevation: 60 m

Current weather observation

The report was made 18 minutes ago, at 17:00 UTC
Wind 8 kt from the Southeast
Temperature 37°C
Humidity 48%
Pressure 995 hPa
Visibility: 3000 m
Scattered clouds at a height of 20000 ft

METAR: OPSK 251700Z 13008KT 3000 DHZ SCT200 37/24 Q0995 NOSIG

Time: 22:18 (17:18 UTC)

Forecast

The report was made 7 hours and 48 minutes ago, at 09:30 UTC
Forecast valid from 26 at 12 UTC to 27 at 12 UTC
Wind 5 kt from the South/Southeast with gusts up to 15 kt
Visibility: 5000 m
Few clouds at a height of 3500 ft
haze
From 26 at 1800 UTC
Wind 5 kt from the South with gusts up to 15 kt
Visibility: 4000 m
haze
Becoming
from 27 at 04 UTC to 27 at 06 UTC
Wind 5 kt from the Southeast with gusts up to 15 kt
Visibility: 5000 m
haze

TAF: OPSK 260930Z 2612/2712 16005G15KT 5000 HZ FEW035 FM261800 18005G15KT 4000 HZ NSC BECMG 2704/2706 13005G15KT 5000 HZ NSC

Weather observations and forecasts of more than 4000 airports (METAR and TAF reports).

The available stations are represented by yellow and red dots on the map.

Hover mouse over dot to see the name of the station.

Then click to see weather observations and forecasts.

To change the map : click on the green buttons with a black cross to zoom in, on the green button with a dash to zoom out, or on the green arrows for adjacent maps.


METAR-TAF: